sensor_id;sensor_type;location;lat;lon;timestamp;pressure;altitude;pressure_sealevel;temperature;humidity
78745;BME280;68064;53.100;8.824;2023-03-01T00:00:31;103326.84;;;-1.56;73.58
78745;BME280;68064;53.100;8.824;2023-03-01T00:01:32;103330.66;;;-1.52;74.20
78745;BME280;68064;53.100;8.824;2023-03-01T00:02:33;103322.31;;;-1.58;74.06
78745;BME280;68064;53.100;8.824;2023-03-01T00:03:35;103324.53;;;-1.54;74.43
78745;BME280;68064;53.100;8.824;2023-03-01T00:04:37;103327.56;;;-1.57;73.89
78745;BME280;68064;53.100;8.824;2023-03-01T00:05:44;103335.28;;;-1.55;73.83
78745;BME280;68064;53.100;8.824;2023-03-01T00:06:45;103327.34;;;-1.58;74.35
78745;BME280;68064;53.100;8.824;2023-03-01T00:07:46;103327.56;;;-1.57;74.14
78745;BME280;68064;53.100;8.824;2023-03-01T00:08:47;103336.31;;;-1.61;74.24
78745;BME280;68064;53.100;8.824;2023-03-01T00:09:49;103331.47;;;-1.59;74.17
78745;BME280;68064;53.100;8.824;2023-03-01T00:11:00;103329.69;;;-1.60;73.64
78745;BME280;68064;53.100;8.824;2023-03-01T00:12:01;103324.72;;;-1.66;74.13
78745;BME280;68064;53.100;8.824;2023-03-01T00:13:03;103315.59;;;-1.65;73.83
78745;BME280;68064;53.100;8.824;2023-03-01T00:14:04;103325.13;;;-1.63;73.97
78745;BME280;68064;53.100;8.824;2023-03-01T00:15:06;103328.38;;;-1.64;74.09
78745;BME280;68064;53.100;8.824;2023-03-01T00:16:10;103329.06;;;-1.65;74.38
78745;BME280;68064;53.100;8.824;2023-03-01T00:17:12;103332.09;;;-1.67;73.74
78745;BME280;68064;53.100;8.824;2023-03-01T00:18:13;103322.56;;;-1.70;73.91
78745;BME280;68064;53.100;8.824;2023-03-01T00:19:16;103327.56;;;-1.70;74.02
78745;BME280;68064;53.100;8.824;2023-03-01T00:20:17;103318.41;;;-1.69;73.39
78745;BME280;68064;53.100;8.824;2023-03-01T00:21:19;103323.03;;;-1.72;73.40
78745;BME280;68064;53.100;8.824;2023-03-01T00:22:21;103310.19;;;-1.81;73.48
78745;BME280;68064;53.100;8.824;2023-03-01T00:23:24;103314.00;;;-1.77;73.36
78745;BME280;68064;53.100;8.824;2023-03-01T00:24:25;103317.53;;;-1.82;73.79
78745;BME280;68064;53.100;8.824;2023-03-01T00:25:29;103314.81;;;-1.84;73.97
78745;BME280;68064;53.100;8.824;2023-03-01T00:26:32;103315.03;;;-1.82;73.67
78745;BME280;68064;53.100;8.824;2023-03-01T00:27:33;103313.00;;;-1.85;73.89
78745;BME280;68064;53.100;8.824;2023-03-01T00:28:35;103319.13;;;-1.83;73.96
78745;BME280;68064;53.100;8.824;2023-03-01T00:29:39;103320.22;;;-1.81;73.44
78745;BME280;68064;53.100;8.824;2023-03-01T00:30:40;103317.31;;;-1.84;73.96
78745;BME280;68064;53.100;8.824;2023-03-01T00:31:44;103311.72;;;-1.88;73.63
78745;BME280;68064;53.100;8.824;2023-03-01T00:32:45;103316.81;;;-1.94;73.33
78745;BME280;68064;53.100;8.824;2023-03-01T00:33:47;103321.13;;;-1.93;73.88
78745;BME280;68064;53.100;8.824;2023-03-01T00:34:48;103312.00;;;-1.92;73.63
78745;BME280;68064;53.100;8.824;2023-03-01T00:35:50;103316.13;;;-1.93;73.90
78745;BME280;68064;53.100;8.824;2023-03-01T00:36:51;103315.03;;;-1.95;73.82
78745;BME280;68064;53.100;8.824;2023-03-01T00:37:52;103318.91;;;-1.97;73.95
78745;BME280;68064;53.100;8.824;2023-03-01T00:38:53;103318.00;;;-1.97;73.97
78745;BME280;68064;53.100;8.824;2023-03-01T00:39:55;103317.00;;;-2.05;73.80
78745;BME280;68064;53.100;8.824;2023-03-01T00:41:03;103311.09;;;-2.05;73.70
78745;BME280;68064;53.100;8.824;2023-03-01T00:42:06;103315.00;;;-2.07;74.15
78745;BME280;68064;53.100;8.824;2023-03-01T00:43:07;103311.78;;;-2.06;73.48
78745;BME280;68064;53.100;8.824;2023-03-01T00:44:09;103308.69;;;-2.11;73.72
78745;BME280;68064;53.100;8.824;2023-03-01T00:45:10;103306.16;;;-2.11;74.19
78745;BME280;68064;53.100;8.824;2023-03-01T00:46:14;103309.78;;;-2.09;73.96
78745;BME280;68064;53.100;8.824;2023-03-01T00:47:18;103307.97;;;-2.10;73.54
78745;BME280;68064;53.100;8.824;2023-03-01T00:48:19;103303.66;;;-2.11;73.75
78745;BME280;68064;53.100;8.824;2023-03-01T00:49:21;103310.78;;;-2.14;73.68
78745;BME280;68064;53.100;8.824;2023-03-01T00:50:22;103311.88;;;-2.12;73.97
78745;BME280;68064;53.100;8.824;2023-03-01T00:51:27;103308.47;;;-2.13;73.46
78745;BME280;68064;53.100;8.824;2023-03-01T00:52:29;103284.78;;;-2.27;73.82
78745;BME280;68064;53.100;8.824;2023-03-01T00:53:31;103296.31;;;-2.22;73.66
78745;BME280;68064;53.100;8.824;2023-03-01T00:54:31;103313.59;;;-2.18;73.40
78745;BME280;68064;53.100;8.824;2023-03-01T00:55:33;103314.28;;;-2.19;73.16
78745;BME280;68064;53.100;8.824;2023-03-01T00:56:33;103313.19;;;-2.21;73.43
78745;BME280;68064;53.100;8.824;2023-03-01T00:57:36;103315.78;;;-2.27;73.42
78745;BME280;68064;53.100;8.824;2023-03-01T00:58:40;103313.66;;;-2.36;72.86
78745;BME280;68064;53.100;8.824;2023-03-01T00:59:43;103316.16;;;-2.36;73.05
78745;BME280;68064;53.100;8.824;2023-03-01T01:00:44;103304.09;;;-2.39;73.21
78745;BME280;68064;53.100;8.824;2023-03-01T01:01:46;103315.03;;;-2.38;73.50
78745;BME280;68064;53.100;8.824;2023-03-01T01:02:47;103305.59;;;-2.46;73.34
78745;BME280;68064;53.100;8.824;2023-03-01T01:03:49;103309.22;;;-2.44;73.14
78745;BME280;68064;53.100;8.824;2023-03-01T01:04:52;103311.94;;;-2.43;73.83
78745;BME280;68064;53.100;8.824;2023-03-01T01:05:53;103299.00;;;-2.46;73.85
78745;BME280;68064;53.100;8.824;2023-03-01T01:06:55;103307.78;;;-2.42;73.36
78745;BME280;68064;53.100;8.824;2023-03-01T01:07:56;103309.22;;;-2.44;73.46
78745;BME280;68064;53.100;8.824;2023-03-01T01:08:57;103305.09;;;-2.44;73.56
78745;BME280;68064;53.100;8.824;2023-03-01T01:09:59;103302.38;;;-2.45;73.39
78745;BME280;68064;53.100;8.824;2023-03-01T01:11:00;103303.56;;;-2.49;73.12
78745;BME280;68064;53.100;8.824;2023-03-01T01:12:04;103310.91;;;-2.50;73.16
78745;BME280;68064;53.100;8.824;2023-03-01T01:13:06;103308.25;;;-2.57;73.71
78745;BME280;68064;53.100;8.824;2023-03-01T01:14:08;103313.78;;;-2.60;73.41
78745;BME280;68064;53.100;8.824;2023-03-01T01:15:10;103313.56;;;-2.61;73.49
78745;BME280;68064;53.100;8.824;2023-03-01T01:16:14;103314.69;;;-2.59;73.93
78745;BME280;68064;53.100;8.824;2023-03-01T01:17:16;103316.28;;;-2.60;73.45
78745;BME280;68064;53.100;8.824;2023-03-01T01:18:19;103303.53;;;-2.61;73.85
78745;BME280;68064;53.100;8.824;2023-03-01T01:19:21;103306.75;;;-2.62;73.51
78745;BME280;68064;53.100;8.824;2023-03-01T01:20:23;103300.63;;;-2.64;73.39
78745;BME280;68064;53.100;8.824;2023-03-01T01:21:24;103307.66;;;-2.62;73.47
78745;BME280;68064;53.100;8.824;2023-03-01T01:22:25;103305.63;;;-2.64;73.46
78745;BME280;68064;53.100;8.824;2023-03-01T01:23:27;103309.34;;;-2.68;73.49
78745;BME280;68064;53.100;8.824;2023-03-01T01:24:29;103300.28;;;-2.73;73.46
78745;BME280;68064;53.100;8.824;2023-03-01T01:25:30;103291.69;;;-2.75;73.26
78745;BME280;68064;53.100;8.824;2023-03-01T01:26:34;103298.00;;;-2.72;73.37
78745;BME280;68064;53.100;8.824;2023-03-01T01:27:39;103291.19;;;-2.73;73.48
78745;BME280;68064;53.100;8.824;2023-03-01T01:28:43;103298.69;;;-2.73;73.68
78745;BME280;68064;53.100;8.824;2023-03-01T01:29:45;103299.09;;;-2.70;73.69
78745;BME280;68064;53.100;8.824;2023-03-01T01:30:46;103289.78;;;-2.71;73.47
78745;BME280;68064;53.100;8.824;2023-03-01T01:31:47;103266.63;;;-2.93;73.02
78745;BME280;68064;53.100;8.824;2023-03-01T01:32:49;103287.16;;;-2.78;73.10
78745;BME280;68064;53.100;8.824;2023-03-01T01:33:50;103298.97;;;-2.77;73.58
78745;BME280;68064;53.100;8.824;2023-03-01T01:34:51;103295.56;;;-2.77;73.24
78745;BME280;68064;53.100;8.824;2023-03-01T01:35:52;103289.66;;;-2.78;73.37
78745;BME280;68064;53.100;8.824;2023-03-01T01:36:54;103292.38;;;-2.76;73.67
78745;BME280;68064;53.100;8.824;2023-03-01T01:37:55;103287.34;;;-2.76;73.30
78745;BME280;68064;53.100;8.824;2023-03-01T01:38:58;103282.84;;;-2.79;73.37
78745;BME280;68064;53.100;8.824;2023-03-01T01:39:59;103283.34;;;-2.81;73.36
78745;BME280;68064;53.100;8.824;2023-03-01T01:41:05;103285.63;;;-2.83;72.88
78745;BME280;68064;53.100;8.824;2023-03-01T01:42:08;103281.38;;;-2.89;73.13
78745;BME280;68064;53.100;8.824;2023-03-01T01:43:18;103283.72;;;-2.91;73.38
78745;BME280;68064;53.100;8.824;2023-03-01T01:44:24;103278.06;;;-2.95;72.89
78745;BME280;68064;53.100;8.824;2023-03-01T01:45:29;103272.91;;;-3.02;73.51
78745;BME280;68064;53.100;8.824;2023-03-01T01:46:32;103274.72;;;-3.01;73.53
78745;BME280;68064;53.100;8.824;2023-03-01T01:47:37;103276.81;;;-3.04;72.98
78745;BME280;68064;53.100;8.824;2023-03-01T01:48:42;103272.78;;;-3.09;73.08
78745;BME280;68064;53.100;8.824;2023-03-01T01:49:47;103267.06;;;-3.08;73.27
78745;BME280;68064;53.100;8.824;2023-03-01T01:50:55;103264.38;;;-3.10;73.42
78745;BME280;68064;53.100;8.824;2023-03-01T01:52:04;103264.84;;;-3.12;73.29
78745;BME280;68064;53.100;8.824;2023-03-01T01:53:11;103262.66;;;-3.16;73.59
78745;BME280;68064;53.100;8.824;2023-03-01T01:54:19;103259.16;;;-3.11;73.23
78745;BME280;68064;53.100;8.824;2023-03-01T01:55:24;103267.56;;;-3.11;73.46
78745;BME280;68064;53.100;8.824;2023-03-01T01:56:29;103262.97;;;-3.08;73.44
78745;BME280;68064;53.100;8.824;2023-03-01T01:57:35;103262.97;;;-3.08;73.27
78745;BME280;68064;53.100;8.824;2023-03-01T01:58:37;103261.66;;;-3.11;72.88
78745;BME280;68064;53.100;8.824;2023-03-01T01:59:43;103257.56;;;-3.11;73.27
78745;BME280;68064;53.100;8.824;2023-03-01T02:00:46;103253.94;;;-3.13;73.54
78745;BME280;68064;53.100;8.824;2023-03-01T02:01:49;103262.06;;;-3.08;72.94
78745;BME280;68064;53.100;8.824;2023-03-01T02:02:51;103258.88;;;-3.07;73.27
78745;BME280;68064;53.100;8.824;2023-03-01T02:03:54;103258.88;;;-3.07;72.94
78745;BME280;68064;53.100;8.824;2023-03-01T02:05:08;103255.25;;;-3.09;73.01
78745;BME280;68064;53.100;8.824;2023-03-01T02:06:15;103255.06;;;-3.11;73.09
78745;BME280;68064;53.100;8.824;2023-03-01T02:07:21;103255.31;;;-3.15;73.16
78745;BME280;68064;53.100;8.824;2023-03-01T02:08:25;103249.50;;;-3.21;73.15
78745;BME280;68064;53.100;8.824;2023-03-01T02:09:27;103251.16;;;-3.27;72.93
78745;BME280;68064;53.100;8.824;2023-03-01T02:10:31;103239.91;;;-3.36;73.29
78745;BME280;68064;53.100;8.824;2023-03-01T02:11:34;103244.22;;;-3.35;73.21
78745;BME280;68064;53.100;8.824;2023-03-01T02:12:36;103247.41;;;-3.36;73.62
78745;BME280;68064;53.100;8.824;2023-03-01T02:13:38;103248.09;;;-3.37;73.52
78745;BME280;68064;53.100;8.824;2023-03-01T02:14:41;103239.28;;;-3.41;73.48
78745;BME280;68064;53.100;8.824;2023-03-01T02:15:43;103246.50;;;-3.37;73.32
78745;BME280;68064;53.100;8.824;2023-03-01T02:16:44;103252.84;;;-3.33;73.53
78745;BME280;68064;53.100;8.824;2023-03-01T02:17:46;103242.41;;;-3.36;73.25
78745;BME280;68064;53.100;8.824;2023-03-01T02:18:47;103245.81;;;-3.36;73.63
78745;BME280;68064;53.100;8.824;2023-03-01T02:19:51;103245.09;;;-3.35;73.31
78745;BME280;68064;53.100;8.824;2023-03-01T02:21:05;103244.22;;;-3.35;73.28
78745;BME280;68064;53.100;8.824;2023-03-01T02:22:15;103249.78;;;-3.43;73.07
78745;BME280;68064;53.100;8.824;2023-03-01T02:23:17;103232.09;;;-3.50;73.20
78745;BME280;68064;53.100;8.824;2023-03-01T02:24:20;103240.75;;;-3.48;73.14
78745;BME280;68064;53.100;8.824;2023-03-01T02:25:31;103234.50;;;-3.57;72.84
78745;BME280;68064;53.100;8.824;2023-03-01T02:26:37;103242.88;;;-3.57;73.26
78745;BME280;68064;53.100;8.824;2023-03-01T02:27:48;103229.75;;;-3.61;73.56
78745;BME280;68064;53.100;8.824;2023-03-01T02:28:53;103230.94;;;-3.65;73.37
78745;BME280;68064;53.100;8.824;2023-03-01T02:29:54;103241.13;;;-3.63;73.46
78745;BME280;68064;53.100;8.824;2023-03-01T02:30:55;103241.13;;;-3.63;73.65
78745;BME280;68064;53.100;8.824;2023-03-01T02:31:59;103240.44;;;-3.62;73.20
78745;BME280;68064;53.100;8.824;2023-03-01T02:33:04;103243.38;;;-3.59;73.63
78745;BME280;68064;53.100;8.824;2023-03-01T02:34:06;103247.19;;;-3.56;73.57
78745;BME280;68064;53.100;8.824;2023-03-01T02:35:09;103247.00;;;-3.57;73.47
78745;BME280;68064;53.100;8.824;2023-03-01T02:36:15;103237.47;;;-3.60;73.68
78745;BME280;68064;53.100;8.824;2023-03-01T02:37:18;103231.53;;;-3.60;73.30
78745;BME280;68064;53.100;8.824;2023-03-01T02:38:20;103225.44;;;-3.62;73.24
78745;BME280;68064;53.100;8.824;2023-03-01T02:39:26;103231.53;;;-3.60;73.45
78745;BME280;68064;53.100;8.824;2023-03-01T02:40:33;103234.28;;;-3.59;73.31
78745;BME280;68064;53.100;8.824;2023-03-01T02:41:37;103228.59;;;-3.58;73.44
78745;BME280;68064;53.100;8.824;2023-03-01T02:42:46;103234.28;;;-3.59;73.32
78745;BME280;68064;53.100;8.824;2023-03-01T02:43:48;103234.03;;;-3.60;73.32
78745;BME280;68064;53.100;8.824;2023-03-01T02:44:56;103234.28;;;-3.59;73.62
78745;BME280;68064;53.100;8.824;2023-03-01T02:45:59;103223.69;;;-3.69;73.58
78745;BME280;68064;53.100;8.824;2023-03-01T02:47:03;103231.13;;;-3.63;73.65
78745;BME280;68064;53.100;8.824;2023-03-01T02:48:05;103232.03;;;-3.63;73.46
78745;BME280;68064;53.100;8.824;2023-03-01T02:49:16;103232.03;;;-3.63;73.46
78745;BME280;68064;53.100;8.824;2023-03-01T02:50:47;103238.22;;;-3.66;73.46
78745;BME280;68064;53.100;8.824;2023-03-01T02:52:10;103236.28;;;-3.75;73.72
78745;BME280;68064;53.100;8.824;2023-03-01T02:53:17;103232.22;;;-3.80;73.40
78745;BME280;68064;53.100;8.824;2023-03-01T02:54:26;103237.22;;;-3.80;73.56
78745;BME280;68064;53.100;8.824;2023-03-01T02:55:30;103240.94;;;-3.83;73.61
78745;BME280;68064;53.100;8.824;2023-03-01T02:56:31;103236.59;;;-3.84;73.71
78745;BME280;68064;53.100;8.824;2023-03-01T02:57:34;103233.69;;;-3.87;73.46
78745;BME280;68064;53.100;8.824;2023-03-01T02:58:38;103234.84;;;-3.91;73.63
78745;BME280;68064;53.100;8.824;2023-03-01T02:59:40;103226.72;;;-3.95;73.73
78745;BME280;68064;53.100;8.824;2023-03-01T03:00:43;103226.78;;;-4.01;73.61
78745;BME280;68064;53.100;8.824;2023-03-01T03:01:44;103239.03;;;-3.97;73.53
78745;BME280;68064;53.100;8.824;2023-03-01T03:02:46;103234.03;;;-3.97;73.64
78745;BME280;68064;53.100;8.824;2023-03-01T03:03:51;103223.53;;;-3.94;73.73
78745;BME280;68064;53.100;8.824;2023-03-01T03:04:52;103239.19;;;-3.90;73.70
78745;BME280;68064;53.100;8.824;2023-03-01T03:05:54;103231.44;;;-3.91;73.61
78745;BME280;68064;53.100;8.824;2023-03-01T03:06:56;103229.19;;;-3.90;73.55
78745;BME280;68064;53.100;8.824;2023-03-01T03:07:59;103231.69;;;-3.90;73.65
78745;BME280;68064;53.100;8.824;2023-03-01T03:09:01;103231.88;;;-3.88;73.64
78745;BME280;68064;53.100;8.824;2023-03-01T03:10:04;103231.69;;;-3.90;73.07
78745;BME280;68064;53.100;8.824;2023-03-01T03:11:05;103223.34;;;-3.96;73.49
78745;BME280;68064;53.100;8.824;2023-03-01T03:12:10;103230.84;;;-3.96;73.48
78745;BME280;68064;53.100;8.824;2023-03-01T03:13:13;103227.19;;;-3.98;73.56
78745;BME280;68064;53.100;8.824;2023-03-01T03:14:16;103222.88;;;-3.99;73.60
78745;BME280;68064;53.100;8.824;2023-03-01T03:15:18;103228.34;;;-3.96;73.51
78745;BME280;68064;53.100;8.824;2023-03-01T03:16:21;103221.78;;;-4.01;73.46
78745;BME280;68064;53.100;8.824;2023-03-01T03:17:22;103224.75;;;-4.03;73.86
78745;BME280;68064;53.100;8.824;2023-03-01T03:18:23;103230.69;;;-4.03;73.32
78745;BME280;68064;53.100;8.824;2023-03-01T03:19:25;103225.66;;;-4.03;73.75
78745;BME280;68064;53.100;8.824;2023-03-01T03:20:28;103233.59;;;-4.00;73.52
78745;BME280;68064;53.100;8.824;2023-03-01T03:21:29;103216.84;;;-4.06;73.77
78745;BME280;68064;53.100;8.824;2023-03-01T03:22:31;103233.59;;;-4.00;73.55
78745;BME280;68064;53.100;8.824;2023-03-01T03:23:32;103227.88;;;-3.99;73.55
78745;BME280;68064;53.100;8.824;2023-03-01T03:24:33;103224.75;;;-4.03;73.64
78745;BME280;68064;53.100;8.824;2023-03-01T03:25:34;103225.44;;;-4.04;73.51
78745;BME280;68064;53.100;8.824;2023-03-01T03:26:36;103224.09;;;-4.02;73.65
78745;BME280;68064;53.100;8.824;2023-03-01T03:27:37;103223.16;;;-4.03;73.65
78745;BME280;68064;53.100;8.824;2023-03-01T03:28:39;103220.88;;;-4.01;73.50
78745;BME280;68064;53.100;8.824;2023-03-01T03:29:40;103214.53;;;-4.05;73.74
78745;BME280;68064;53.100;8.824;2023-03-01T03:30:42;103208.84;;;-4.04;73.89
78745;BME280;68064;53.100;8.824;2023-03-01T03:31:45;103218.84;;;-4.04;73.49
78745;BME280;68064;53.100;8.824;2023-03-01T03:32:47;103212.09;;;-4.10;73.64
78745;BME280;68064;53.100;8.824;2023-03-01T03:33:49;103213.44;;;-4.07;73.73
78745;BME280;68064;53.100;8.824;2023-03-01T03:34:50;103205.09;;;-4.13;73.69
78745;BME280;68064;53.100;8.824;2023-03-01T03:35:51;103209.84;;;-4.14;73.92
78745;BME280;68064;53.100;8.824;2023-03-01T03:36:54;103206.03;;;-4.18;73.57
78745;BME280;68064;53.100;8.824;2023-03-01T03:37:56;103207.00;;;-4.23;73.60
78745;BME280;68064;53.100;8.824;2023-03-01T03:39:01;103202.00;;;-4.23;73.74
78745;BME280;68064;53.100;8.824;2023-03-01T03:40:02;103213.06;;;-4.15;73.99
78745;BME280;68064;53.100;8.824;2023-03-01T03:41:06;103203.25;;;-4.14;73.87
78745;BME280;68064;53.100;8.824;2023-03-01T03:42:07;103199.84;;;-4.14;73.44
78745;BME280;68064;53.100;8.824;2023-03-01T03:43:09;103196.69;;;-4.13;73.41
78745;BME280;68064;53.100;8.824;2023-03-01T03:44:11;103199.81;;;-4.09;73.79
78745;BME280;68064;53.100;8.824;2023-03-01T03:45:12;103190.75;;;-4.14;73.52
78745;BME280;68064;53.100;8.824;2023-03-01T03:46:16;103200.28;;;-4.11;73.35
78745;BME280;68064;53.100;8.824;2023-03-01T03:47:21;103207.09;;;-4.10;73.85
78745;BME280;68064;53.100;8.824;2023-03-01T03:48:23;103202.78;;;-4.11;73.57
78745;BME280;68064;53.100;8.824;2023-03-01T03:49:24;103201.91;;;-4.12;73.53
78745;BME280;68064;53.100;8.824;2023-03-01T03:50:26;103193.06;;;-4.15;73.58
78745;BME280;68064;53.100;8.824;2023-03-01T03:51:27;103196.00;;;-4.12;73.57
78745;BME280;68064;53.100;8.824;2023-03-01T03:52:28;103200.75;;;-4.14;73.57
78745;BME280;68064;53.100;8.824;2023-03-01T03:53:30;103193.97;;;-4.15;73.48
78745;BME280;68064;53.100;8.824;2023-03-01T03:54:31;103194.44;;;-4.17;73.26
78745;BME280;68064;53.100;8.824;2023-03-01T03:55:32;103191.47;;;-4.15;73.78
78745;BME280;68064;53.100;8.824;2023-03-01T03:56:33;103191.66;;;-4.13;73.67
78745;BME280;68064;53.100;8.824;2023-03-01T03:57:36;103195.09;;;-4.13;73.80
78745;BME280;68064;53.100;8.824;2023-03-01T03:58:37;103182.66;;;-4.18;73.44
78745;BME280;68064;53.100;8.824;2023-03-01T03:59:38;103188.25;;;-4.14;73.52
78745;BME280;68064;53.100;8.824;2023-03-01T04:00:41;103189.41;;;-4.12;73.50
78745;BME280;68064;53.100;8.824;2023-03-01T04:01:45;103181.25;;;-4.16;73.74
78745;BME280;68064;53.100;8.824;2023-03-01T04:02:48;103181.94;;;-4.17;73.07
78745;BME280;68064;53.100;8.824;2023-03-01T04:03:49;103178.09;;;-4.21;73.09
78745;BME280;68064;53.100;8.824;2023-03-01T04:04:51;103185.34;;;-4.17;73.49
78745;BME280;68064;53.100;8.824;2023-03-01T04:05:52;103187.84;;;-4.17;73.34
78745;BME280;68064;53.100;8.824;2023-03-01T04:06:53;103181.03;;;-4.18;73.54
78745;BME280;68064;53.100;8.824;2023-03-01T04:07:54;103179.97;;;-4.25;73.82
78745;BME280;68064;53.100;8.824;2023-03-01T04:08:55;103182.25;;;-4.27;73.98
78745;BME280;68064;53.100;8.824;2023-03-01T04:09:56;103181.63;;;-4.32;73.85
78745;BME280;68064;53.100;8.824;2023-03-01T04:11:00;103183.91;;;-4.33;74.14
78745;BME280;68064;53.100;8.824;2023-03-01T04:12:01;103193.47;;;-4.36;73.96
78745;BME280;68064;53.100;8.824;2023-03-01T04:13:03;103182.38;;;-4.38;74.09
78745;BME280;68064;53.100;8.824;2023-03-01T04:14:04;103174.72;;;-4.45;74.67
78745;BME280;68064;53.100;8.824;2023-03-01T04:15:07;103183.06;;;-4.39;74.21
78745;BME280;68064;53.100;8.824;2023-03-01T04:16:08;103179.22;;;-4.43;73.75
78745;BME280;68064;53.100;8.824;2023-03-01T04:17:10;103185.06;;;-4.37;74.08
78745;BME280;68064;53.100;8.824;2023-03-01T04:18:14;103180.31;;;-4.35;74.11
78745;BME280;68064;53.100;8.824;2023-03-01T04:19:16;103185.94;;;-4.31;73.89
78745;BME280;68064;53.100;8.824;2023-03-01T04:20:19;103183.84;;;-4.28;73.92
78745;BME280;68064;53.100;8.824;2023-03-01T04:21:21;103183.84;;;-4.28;73.77
78745;BME280;68064;53.100;8.824;2023-03-01T04:22:22;103178.66;;;-4.29;74.09
78745;BME280;68064;53.100;8.824;2023-03-01T04:23:23;103184.34;;;-4.30;73.86
78745;BME280;68064;53.100;8.824;2023-03-01T04:24:24;103171.41;;;-4.33;73.94
78745;BME280;68064;53.100;8.824;2023-03-01T04:25:25;103182.25;;;-4.27;73.88
78745;BME280;68064;53.100;8.824;2023-03-01T04:26:26;103178.41;;;-4.25;73.75
78745;BME280;68064;53.100;8.824;2023-03-01T04:27:28;103179.31;;;-4.24;73.59
78745;BME280;68064;53.100;8.824;2023-03-01T04:28:30;103186.56;;;-4.26;73.62
78745;BME280;68064;53.100;8.824;2023-03-01T04:29:32;103178.44;;;-4.31;73.58
78745;BME280;68064;53.100;8.824;2023-03-01T04:30:33;103183.00;;;-4.34;73.84
78745;BME280;68064;53.100;8.824;2023-03-01T04:31:34;103181.72;;;-4.37;73.83
78745;BME280;68064;53.100;8.824;2023-03-01T04:32:38;103178.50;;;-4.36;73.50
78745;BME280;68064;53.100;8.824;2023-03-01T04:33:44;103185.50;;;-4.34;73.78
78745;BME280;68064;53.100;8.824;2023-03-01T04:34:46;103181.22;;;-4.35;73.77
78745;BME280;68064;53.100;8.824;2023-03-01T04:35:47;103183.00;;;-4.34;73.78
78745;BME280;68064;53.100;8.824;2023-03-01T04:36:48;103168.97;;;-4.39;73.87
78745;BME280;68064;53.100;8.824;2023-03-01T04:37:50;103175.81;;;-4.43;73.92
78745;BME280;68064;53.100;8.824;2023-03-01T04:38:51;103180.38;;;-4.41;73.93
78745;BME280;68064;53.100;8.824;2023-03-01T04:39:52;103175.41;;;-4.46;75.19
78745;BME280;68064;53.100;8.824;2023-03-01T04:40:53;103176.31;;;-4.46;74.25
78745;BME280;68064;53.100;8.824;2023-03-01T04:41:55;103172.91;;;-4.46;74.15
78745;BME280;68064;53.100;8.824;2023-03-01T04:42:56;103173.63;;;-4.47;74.32
78745;BME280;68064;53.100;8.824;2023-03-01T04:43:58;103166.31;;;-4.46;74.09
78745;BME280;68064;53.100;8.824;2023-03-01T04:44:59;103175.78;;;-4.38;74.14
78745;BME280;68064;53.100;8.824;2023-03-01T04:46:01;103165.38;;;-4.41;73.82
78745;BME280;68064;53.100;8.824;2023-03-01T04:47:02;103173.28;;;-4.38;73.89
78745;BME280;68064;53.100;8.824;2023-03-01T04:48:04;103168.97;;;-4.39;73.75
78745;BME280;68064;53.100;8.824;2023-03-01T04:49:08;103175.13;;;-4.42;73.72
78745;BME280;68064;53.100;8.824;2023-03-01T04:50:11;103162.22;;;-4.45;73.87
78745;BME280;68064;53.100;8.824;2023-03-01T04:51:12;103160.88;;;-4.49;73.86
78745;BME280;68064;53.100;8.824;2023-03-01T04:52:13;103158.88;;;-4.51;74.02
78745;BME280;68064;53.100;8.824;2023-03-01T04:53:15;103156.16;;;-4.53;74.22
78745;BME280;68064;53.100;8.824;2023-03-01T04:54:16;103164.53;;;-4.47;74.42
78745;BME280;68064;53.100;8.824;2023-03-01T04:55:17;103159.53;;;-4.47;73.93
78745;BME280;68064;53.100;8.824;2023-03-01T04:56:19;103153.81;;;-4.46;73.82
78745;BME280;68064;53.100;8.824;2023-03-01T04:57:21;103147.78;;;-4.53;73.87
78745;BME280;68064;53.100;8.824;2023-03-01T04:58:22;103162.66;;;-4.42;73.75
78745;BME280;68064;53.100;8.824;2023-03-01T04:59:23;103160.81;;;-4.43;73.62
78745;BME280;68064;53.100;8.824;2023-03-01T05:00:24;103160.63;;;-4.45;73.72
78745;BME280;68064;53.100;8.824;2023-03-01T05:01:25;103161.13;;;-4.47;73.46
78745;BME280;68064;53.100;8.824;2023-03-01T05:02:26;103157.91;;;-4.46;73.75
78745;BME280;68064;53.100;8.824;2023-03-01T05:03:28;103156.13;;;-4.47;73.85
78745;BME280;68064;53.100;8.824;2023-03-01T05:04:31;103148.72;;;-4.58;73.83
78745;BME280;68064;53.100;8.824;2023-03-01T05:05:34;103164.06;;;-4.50;73.58
78745;BME280;68064;53.100;8.824;2023-03-01T05:06:35;103163.66;;;-4.53;73.90
78745;BME280;68064;53.100;8.824;2023-03-01T05:07:36;103161.63;;;-4.55;73.76
78745;BME280;68064;53.100;8.824;2023-03-01T05:08:38;103162.78;;;-4.59;73.34
78745;BME280;68064;53.100;8.824;2023-03-01T05:09:39;103164.56;;;-4.52;73.70
78745;BME280;68064;53.100;8.824;2023-03-01T05:10:40;103162.78;;;-4.53;73.60
78745;BME280;68064;53.100;8.824;2023-03-01T05:11:43;103160.47;;;-4.52;73.77
78745;BME280;68064;53.100;8.824;2023-03-01T05:12:44;103155.28;;;-4.53;73.42
78745;BME280;68064;53.100;8.824;2023-03-01T05:13:45;103156.63;;;-4.55;73.76
78745;BME280;68064;53.100;8.824;2023-03-01T05:14:46;103169.34;;;-4.54;73.60
78745;BME280;68064;53.100;8.824;2023-03-01T05:15:49;103163.69;;;-4.58;74.01
78745;BME280;68064;53.100;8.824;2023-03-01T05:16:57;103166.00;;;-4.60;73.75
78745;BME280;68064;53.100;8.824;2023-03-01T05:17:59;103165.09;;;-4.60;73.95
78745;BME280;68064;53.100;8.824;2023-03-01T05:19:01;103164.19;;;-4.61;73.90
78745;BME280;68064;53.100;8.824;2023-03-01T05:20:05;103171.19;;;-4.58;73.87
78745;BME280;68064;53.100;8.824;2023-03-01T05:21:08;103166.69;;;-4.61;73.91
78745;BME280;68064;53.100;8.824;2023-03-01T05:22:09;103161.25;;;-4.64;73.87
78745;BME280;68064;53.100;8.824;2023-03-01T05:23:11;103166.00;;;-4.60;73.56
78745;BME280;68064;53.100;8.824;2023-03-01T05:24:11;103172.78;;;-4.59;73.80
78745;BME280;68064;53.100;8.824;2023-03-01T05:25:12;103163.50;;;-4.60;74.30
78745;BME280;68064;53.100;8.824;2023-03-01T05:26:16;103164.19;;;-4.61;73.77
78745;BME280;68064;53.100;8.824;2023-03-01T05:27:19;103165.09;;;-4.60;73.81
78745;BME280;68064;53.100;8.824;2023-03-01T05:28:20;103171.88;;;-4.59;73.59